createdAt,value
2023-02-28T00:01:22.500Z,6.20
2023-02-28T00:03:49.549Z,6.20
2023-02-28T00:06:16.774Z,6.20
2023-02-28T00:08:43.865Z,6.20
2023-02-28T00:11:11.940Z,6.20
2023-02-28T00:13:40.062Z,6.20
2023-02-28T00:16:07.955Z,6.20
2023-02-28T00:18:34.800Z,6.20
2023-02-28T00:21:01.673Z,6.20
2023-02-28T00:23:28.613Z,6.10
2023-02-28T00:25:55.527Z,6.10
2023-02-28T00:28:22.885Z,6.10
2023-02-28T00:30:49.754Z,6.10
2023-02-28T00:33:16.690Z,6.10
2023-02-28T00:35:43.692Z,6.10
2023-02-28T00:38:10.605Z,6.10
2023-02-28T00:40:37.432Z,6.10
2023-02-28T00:43:05.112Z,6.10
2023-02-28T00:45:31.868Z,6.10
2023-02-28T00:47:58.633Z,6.00
2023-02-28T00:50:25.691Z,6.00
2023-02-28T00:52:52.497Z,6.00
2023-02-28T00:55:19.814Z,6.00
2023-02-28T00:57:46.619Z,6.00
2023-02-28T01:00:13.658Z,6.00
2023-02-28T01:02:40.474Z,6.00
2023-02-28T01:05:07.485Z,6.00
2023-02-28T01:07:34.311Z,5.90
2023-02-28T01:10:01.107Z,5.90
2023-02-28T01:12:29.911Z,5.90
2023-02-28T01:14:57.698Z,5.90
2023-02-28T01:17:24.513Z,5.80
2023-02-28T01:19:53.882Z,5.80
2023-02-28T01:22:20.897Z,5.80
2023-02-28T01:24:48.434Z,5.80
2023-02-28T01:27:15.343Z,5.80
2023-02-28T01:29:42.182Z,5.70
2023-02-28T01:32:08.997Z,5.70
2023-02-28T01:34:35.829Z,5.70
2023-02-28T01:37:02.700Z,5.70
2023-02-28T01:39:29.512Z,5.70
2023-02-28T01:41:56.424Z,5.70
2023-02-28T01:44:41.980Z,5.70
2023-02-28T01:47:08.811Z,5.70
2023-02-28T01:49:35.769Z,5.70
2023-02-28T01:52:02.777Z,5.60
2023-02-28T01:54:34.556Z,5.60
2023-02-28T01:57:04.836Z,5.60
2023-02-28T01:59:35.166Z,5.60
2023-02-28T02:02:02.731Z,5.60
2023-02-28T02:04:34.152Z,5.60
2023-02-28T02:07:01.093Z,5.60
2023-02-28T02:09:27.942Z,5.50
2023-02-28T02:11:56.389Z,5.50
2023-02-28T02:14:33.484Z,5.50
2023-02-28T02:17:19.203Z,5.50
2023-02-28T02:20:03.025Z,5.50
2023-02-28T02:22:35.889Z,5.50
2023-02-28T02:25:12.923Z,5.50
2023-02-28T02:27:39.907Z,5.50
2023-02-28T02:30:25.527Z,5.60
2023-02-28T02:32:58.669Z,5.50
2023-02-28T02:35:44.479Z,5.50
2023-02-28T02:38:19.906Z,5.50
2023-02-28T02:40:58.781Z,5.40
2023-02-28T02:43:41.309Z,5.40
2023-02-28T02:46:28.353Z,5.40
2023-02-28T02:48:56.806Z,5.40
2023-02-28T02:51:24.141Z,5.40
2023-02-28T02:53:53.244Z,5.40
2023-02-28T02:56:22.131Z,5.40
2023-02-28T02:58:50.433Z,5.40
2023-02-28T03:01:28.726Z,5.40
2023-02-28T03:03:56.946Z,5.30
2023-02-28T03:06:23.738Z,5.30
2023-02-28T03:08:51.004Z,5.30
2023-02-28T03:11:17.968Z,5.30
2023-02-28T03:13:47.765Z,5.30
2023-02-28T03:16:14.554Z,5.30
2023-02-28T03:18:59.986Z,5.20
2023-02-28T03:21:39.433Z,5.30
2023-02-28T03:24:08.968Z,5.30
2023-02-28T03:26:38.438Z,5.30
2023-02-28T03:29:22.622Z,5.20
2023-02-28T03:31:51.012Z,5.20
2023-02-28T03:34:22.085Z,5.20
2023-02-28T03:36:50.811Z,5.20
2023-02-28T03:39:20.306Z,5.20
2023-02-28T03:41:50.803Z,5.20
2023-02-28T03:47:20.422Z,5.20
2023-02-28T03:49:49.021Z,5.10
2023-02-28T03:52:15.870Z,5.10
2023-02-28T03:54:45.069Z,5.10
2023-02-28T03:57:15.226Z,5.10
2023-02-28T03:59:44.390Z,5.00
2023-02-28T04:02:11.220Z,5.00
2023-02-28T04:04:38.114Z,4.90
2023-02-28T04:07:08.898Z,4.90
2023-02-28T04:09:35.815Z,4.90
2023-02-28T04:12:02.629Z,4.90
2023-02-28T04:14:29.421Z,4.90
2023-02-28T04:16:56.267Z,4.90
2023-02-28T04:19:23.146Z,4.90
2023-02-28T04:21:51.153Z,4.90
2023-02-28T04:24:25.614Z,5.00
2023-02-28T04:26:53.478Z,5.00
2023-02-28T04:29:28.337Z,4.90
2023-02-28T04:31:56.085Z,4.90
2023-02-28T04:34:23.209Z,4.90
2023-02-28T04:37:06.108Z,4.90
2023-02-28T04:39:38.818Z,4.90
2023-02-28T04:42:05.830Z,5.00
2023-02-28T04:44:32.879Z,5.00
2023-02-28T04:46:59.788Z,4.90
2023-02-28T04:49:26.637Z,5.00
2023-02-28T04:51:54.048Z,4.90
2023-02-28T04:54:21.048Z,5.00
2023-02-28T04:56:49.561Z,4.90
2023-02-28T04:59:16.342Z,5.00
2023-02-28T05:01:46.450Z,5.00
2023-02-28T05:04:13.284Z,4.90
2023-02-28T05:06:40.068Z,5.00
2023-02-28T05:09:06.864Z,5.00
2023-02-28T05:11:37.102Z,4.90
2023-02-28T05:14:04.994Z,4.90
2023-02-28T05:16:32.557Z,4.90
2023-02-28T05:18:59.673Z,4.90
2023-02-28T05:21:28.983Z,4.90
2023-02-28T05:23:57.169Z,4.90
2023-02-28T05:26:24.830Z,4.90
2023-02-28T05:28:51.619Z,4.90
2023-02-28T05:31:18.684Z,4.80
2023-02-28T05:33:45.566Z,4.90
2023-02-28T05:36:12.574Z,4.90
2023-02-28T05:38:39.376Z,4.90
2023-02-28T05:41:10.185Z,4.90
2023-02-28T05:43:38.209Z,4.90
2023-02-28T05:46:08.758Z,4.90
2023-02-28T05:48:36.511Z,4.90
2023-02-28T05:51:04.039Z,4.90
2023-02-28T05:53:30.848Z,4.90
2023-02-28T05:55:58.142Z,4.90
2023-02-28T05:58:26.642Z,4.80
2023-02-28T06:00:53.579Z,4.80
2023-02-28T06:03:20.452Z,4.80
2023-02-28T06:05:47.327Z,4.80
2023-02-28T06:08:14.313Z,4.80
2023-02-28T06:10:41.121Z,4.80
2023-02-28T06:13:07.944Z,4.80
2023-02-28T06:15:34.837Z,4.70
2023-02-28T06:18:01.693Z,4.80
2023-02-28T06:20:30.438Z,4.80
2023-02-28T06:22:59.594Z,4.80
2023-02-28T06:25:27.752Z,4.80
2023-02-28T06:27:55.107Z,4.90
2023-02-28T06:30:26.422Z,4.80
2023-02-28T06:32:53.468Z,4.80
2023-02-28T06:35:20.523Z,4.80
2023-02-28T06:37:48.263Z,4.80
2023-02-28T06:40:21.479Z,4.70
2023-02-28T06:42:48.415Z,4.70
2023-02-28T06:45:15.267Z,4.70
2023-02-28T06:47:42.514Z,4.70
2023-02-28T06:50:10.747Z,4.70
2023-02-28T06:52:38.501Z,4.60
2023-02-28T06:55:06.526Z,4.60
2023-02-28T06:57:34.079Z,4.60
2023-02-28T07:00:01.474Z,4.70
2023-02-28T07:02:28.890Z,4.70
2023-02-28T07:04:56.013Z,4.60
2023-02-28T07:07:22.974Z,4.60
2023-02-28T07:09:49.836Z,4.50
2023-02-28T07:12:16.961Z,4.50
2023-02-28T07:14:43.770Z,4.50
2023-02-28T07:17:13.025Z,4.50
2023-02-28T07:19:40.322Z,4.50
2023-02-28T07:22:07.894Z,4.50
2023-02-28T07:24:34.864Z,4.50
2023-02-28T07:27:02.574Z,4.50
2023-02-28T07:29:29.721Z,4.50
2023-02-28T07:31:57.133Z,4.50
2023-02-28T07:34:23.970Z,4.60
2023-02-28T07:36:54.592Z,4.60
2023-02-28T07:39:22.105Z,4.50
2023-02-28T07:41:49.097Z,4.50
2023-02-28T07:44:16.176Z,4.50
2023-02-28T07:46:43.072Z,4.50
2023-02-28T07:49:09.996Z,4.40
2023-02-28T07:51:36.816Z,4.40
2023-02-28T07:54:04.091Z,4.50
2023-02-28T07:56:31.428Z,4.50
2023-02-28T07:58:58.602Z,4.50
2023-02-28T08:01:25.500Z,4.50
2023-02-28T08:03:52.578Z,4.50
2023-02-28T08:06:21.020Z,4.60
2023-02-28T08:08:47.940Z,4.60
2023-02-28T08:11:15.362Z,4.70
2023-02-28T08:13:43.513Z,4.90
2023-02-28T08:16:10.750Z,4.90
2023-02-28T08:18:37.610Z,5.00
2023-02-28T08:21:08.386Z,5.10
2023-02-28T08:23:35.337Z,5.10
2023-02-28T08:26:02.284Z,5.20
2023-02-28T08:28:29.138Z,5.20
2023-02-28T08:30:56.409Z,5.20
2023-02-28T08:33:23.916Z,5.30
2023-02-28T08:35:53.302Z,5.30
2023-02-28T08:38:23.428Z,5.40
2023-02-28T08:40:50.632Z,5.40
2023-02-28T08:43:19.790Z,5.40
2023-02-28T09:12:48.167Z,6.00
2023-02-28T09:15:14.972Z,6.10
2023-02-28T09:17:42.812Z,6.00
2023-02-28T09:20:10.646Z,6.00
2023-02-28T09:25:04.949Z,6.20
2023-02-28T09:27:31.899Z,6.20
2023-02-28T09:30:00.387Z,6.20
2023-02-28T09:34:57.101Z,6.40
2023-02-28T09:37:24.493Z,6.40
2023-02-28T09:39:51.434Z,6.50
2023-02-28T09:42:34.874Z,6.60
2023-02-28T09:45:06.308Z,6.80
2023-02-28T09:53:16.213Z,7.30
2023-02-28T09:55:48.866Z,7.30
2023-02-28T10:01:20.480Z,7.30
2023-02-28T10:03:58.521Z,7.20
2023-02-28T10:06:32.619Z,7.40
2023-02-28T10:09:02.669Z,7.80
2023-02-28T10:11:35.163Z,8.60
2023-02-28T10:17:12.029Z,8.70
2023-02-28T10:19:39.579Z,8.30
2023-02-28T10:22:17.284Z,8.10
2023-02-28T10:24:46.495Z,8.00
2023-02-28T10:28:03.178Z,7.70
2023-02-28T10:30:31.774Z,7.60
2023-02-28T10:33:00.904Z,7.50
2023-02-28T10:38:25.163Z,7.90
2023-02-28T10:40:52.621Z,7.90
2023-02-28T10:43:21.553Z,7.80
2023-02-28T10:45:57.659Z,7.80
2023-02-28T10:48:36.334Z,7.80
2023-02-28T10:51:05.350Z,7.80
2023-02-28T11:17:44.034Z,7.70
2023-02-28T11:25:36.459Z,7.70
2023-02-28T11:28:07.406Z,7.80
2023-02-28T11:30:35.243Z,7.80
2023-02-28T11:33:18.366Z,7.90
2023-02-28T11:35:45.780Z,7.90
2023-02-28T11:38:14.222Z,7.90
2023-02-28T11:40:47.970Z,8.00
2023-02-28T11:43:33.693Z,8.00
2023-02-28T11:46:13.118Z,8.00
2023-02-28T11:48:40.354Z,8.00
2023-02-28T11:51:17.526Z,8.00
2023-02-28T11:53:57.363Z,8.00
2023-02-28T12:02:40.263Z,8.00
2023-02-28T12:05:10.467Z,8.00
2023-02-28T12:10:41.072Z,8.00
2023-02-28T12:17:08.536Z,7.90
2023-02-28T12:19:56.281Z,7.90
2023-02-28T12:22:48.436Z,7.80
2023-02-28T12:25:35.057Z,7.70
2023-02-28T12:37:33.193Z,7.60
2023-02-28T12:40:22.146Z,7.60
2023-02-28T12:43:12.586Z,7.70
2023-02-28T12:46:13.489Z,7.60
2023-02-28T12:48:55.305Z,7.60
2023-02-28T12:51:36.651Z,7.70
2023-02-28T12:54:48.250Z,7.60
2023-02-28T12:57:45.804Z,7.60
2023-02-28T13:00:21.543Z,7.70
2023-02-28T13:03:24.598Z,7.70
2023-02-28T13:06:12.304Z,7.70
2023-02-28T13:11:47.803Z,7.80
2023-02-28T13:14:47.280Z,7.80
2023-02-28T13:17:22.180Z,7.80
2023-02-28T13:20:02.319Z,7.80
2023-02-28T13:22:49.817Z,7.80
2023-02-28T13:25:57.071Z,7.80
2023-02-28T13:28:43.274Z,7.80
2023-02-28T13:31:13.883Z,7.80
2023-02-28T13:34:08.728Z,7.70
2023-02-28T13:39:29.689Z,7.70
2023-02-28T13:51:25.309Z,7.70
2023-02-28T13:57:15.435Z,7.70
2023-02-28T14:00:07.576Z,7.70
2023-02-28T14:05:31.886Z,7.50
2023-02-28T14:13:29.031Z,7.50
2023-02-28T14:18:34.809Z,7.50
2023-02-28T14:23:57.045Z,7.50
2023-02-28T14:26:38.229Z,7.50
2023-02-28T14:29:39.486Z,7.50
2023-02-28T14:34:43.334Z,7.60
2023-02-28T14:37:14.757Z,7.60
2023-02-28T14:39:47.612Z,7.60
2023-02-28T14:42:29.700Z,7.70
2023-02-28T14:50:49.850Z,7.70
2023-02-28T14:53:19.141Z,7.70
2023-02-28T14:58:29.593Z,7.70
2023-02-28T15:00:58.587Z,7.80
2023-02-28T15:06:03.551Z,7.80
2023-02-28T15:08:36.603Z,7.80
2023-02-28T15:16:33.641Z,7.80
2023-02-28T15:21:37.903Z,7.80
2023-02-28T15:24:08.307Z,7.90
2023-02-28T15:26:36.935Z,7.90
2023-02-28T15:29:18.189Z,8.00
2023-02-28T15:31:56.831Z,7.90
2023-02-28T15:34:26.460Z,7.90
2023-02-28T15:36:55.883Z,7.80
2023-02-28T15:39:27.985Z,7.60
2023-02-28T15:42:13.833Z,7.40
2023-02-28T15:44:40.832Z,7.30
2023-02-28T15:47:15.947Z,7.20
2023-02-28T15:50:03.232Z,7.20
2023-02-28T15:52:30.729Z,7.10
2023-02-28T15:54:57.558Z,7.10
2023-02-28T15:57:29.046Z,7.10
2023-02-28T16:00:01.487Z,7.00
2023-02-28T16:02:36.137Z,7.10
2023-02-28T16:05:18.111Z,7.10
2023-02-28T16:07:45.141Z,7.10
2023-02-28T16:10:13.034Z,7.10
2023-02-28T16:12:40.403Z,7.20
2023-02-28T16:15:09.496Z,7.20
2023-02-28T16:17:38.678Z,7.20
2023-02-28T16:20:22.498Z,7.20
2023-02-28T16:22:49.552Z,7.20
2023-02-28T16:25:22.030Z,7.20
2023-02-28T16:27:54.817Z,7.10
2023-02-28T16:30:23.775Z,7.10
2023-02-28T16:32:51.294Z,7.00
2023-02-28T16:35:19.002Z,7.10
2023-02-28T16:37:46.109Z,7.10
2023-02-28T16:40:17.412Z,7.10
2023-02-28T16:42:45.084Z,7.00
2023-02-28T16:45:21.941Z,6.90
2023-02-28T16:47:48.750Z,6.90
2023-02-28T16:50:19.927Z,6.80
2023-02-28T16:52:46.911Z,6.90
2023-02-28T16:55:13.869Z,6.90
2023-02-28T16:57:41.321Z,6.90
2023-02-28T17:00:09.255Z,6.90
2023-02-28T17:02:36.519Z,6.90
2023-02-28T17:05:03.631Z,6.90
2023-02-28T17:07:30.515Z,6.90
2023-02-28T17:09:57.359Z,6.80
2023-02-28T17:12:24.191Z,6.80
2023-02-28T17:14:50.973Z,6.70
2023-02-28T17:17:22.204Z,6.70
2023-02-28T17:19:49.046Z,6.60
2023-02-28T17:22:15.856Z,6.60
2023-02-28T17:24:42.739Z,6.60
2023-02-28T17:27:12.136Z,6.50
2023-02-28T17:29:38.954Z,6.50
2023-02-28T17:32:16.021Z,6.50
2023-02-28T17:34:45.013Z,6.50
2023-02-28T17:37:11.810Z,6.40
2023-02-28T17:39:38.574Z,6.40
2023-02-28T17:42:05.521Z,6.40
2023-02-28T17:44:32.342Z,6.40
2023-02-28T17:46:59.882Z,6.40
2023-02-28T17:49:26.788Z,6.40
2023-02-28T17:51:53.564Z,6.30
2023-02-28T17:54:20.973Z,6.30
2023-02-28T17:56:47.822Z,6.40
2023-02-28T17:59:14.932Z,6.40
2023-02-28T18:01:41.759Z,6.40
2023-02-28T18:04:08.605Z,6.40
2023-02-28T18:06:47.171Z,6.50
2023-02-28T18:09:17.500Z,6.50
2023-02-28T18:11:48.971Z,6.50
2023-02-28T18:14:43.556Z,6.50
2023-02-28T18:17:10.836Z,6.50
2023-02-28T18:19:39.104Z,6.50
2023-02-28T18:22:08.321Z,6.50
2023-02-28T18:24:36.304Z,6.50
2023-02-28T18:27:03.303Z,6.50
2023-02-28T18:29:30.341Z,6.50
2023-02-28T18:31:57.722Z,6.50
2023-02-28T18:34:25.078Z,6.50
2023-02-28T18:36:52.328Z,6.40
2023-02-28T18:39:19.348Z,6.50
2023-02-28T18:44:28.837Z,6.50
2023-02-28T18:46:56.162Z,6.50
2023-02-28T18:49:23.437Z,6.50
2023-02-28T18:51:50.650Z,6.50
2023-02-28T18:54:18.085Z,6.50
2023-02-28T18:56:45.445Z,6.50
2023-02-28T18:59:13.214Z,6.60
2023-02-28T19:01:41.180Z,6.60
2023-02-28T19:04:11.619Z,6.50
2023-02-28T19:06:39.506Z,6.50
2023-02-28T19:09:10.282Z,6.50
2023-02-28T19:11:37.493Z,6.50
2023-02-28T19:14:08.292Z,6.60
2023-02-28T19:16:36.720Z,6.60
2023-02-28T19:19:04.078Z,6.60
2023-02-28T19:24:37.855Z,6.50
2023-02-28T19:27:05.506Z,6.50
2023-02-28T19:29:35.422Z,6.50
2023-02-28T19:32:04.370Z,6.50
2023-02-28T19:40:02.820Z,6.60
2023-02-28T19:42:33.242Z,6.60
2023-02-28T19:45:00.153Z,6.50
2023-02-28T19:47:27.432Z,6.50
2023-02-28T19:49:54.826Z,6.50
2023-02-28T19:52:21.933Z,6.50
2023-02-28T19:54:48.788Z,6.50
2023-02-28T19:57:15.653Z,6.50
2023-02-28T19:59:42.561Z,6.50
2023-02-28T20:02:22.728Z,6.50
2023-02-28T20:04:53.508Z,6.50
2023-02-28T20:07:21.115Z,6.50
2023-02-28T20:09:48.606Z,6.50
2023-02-28T20:12:24.217Z,6.50
2023-02-28T20:14:52.027Z,6.50
2023-02-28T20:17:18.925Z,6.50
2023-02-28T20:19:45.758Z,6.50
2023-02-28T20:22:12.641Z,6.50
2023-02-28T20:24:39.565Z,6.60
2023-02-28T20:27:06.904Z,6.50
2023-02-28T20:29:34.142Z,6.50
2023-02-28T20:32:01.090Z,6.50
2023-02-28T20:40:10.699Z,6.60
2023-02-28T20:42:37.540Z,6.60
2023-02-28T20:45:04.499Z,6.50
2023-02-28T20:47:31.310Z,6.60
2023-02-28T20:49:58.135Z,6.50
2023-02-28T20:52:25.185Z,6.50
2023-02-28T20:54:52.059Z,6.50
2023-02-28T20:57:18.939Z,6.50
2023-02-28T20:59:45.764Z,6.50
2023-02-28T21:02:15.474Z,6.50
2023-02-28T21:04:42.354Z,6.40
2023-02-28T21:07:09.189Z,6.40
2023-02-28T21:09:36.096Z,6.40
2023-02-28T21:12:02.986Z,6.40
2023-02-28T21:14:32.117Z,6.40
2023-02-28T21:16:58.943Z,6.40
2023-02-28T21:19:25.709Z,6.40
2023-02-28T21:21:54.481Z,6.40
2023-02-28T21:24:21.319Z,6.40
2023-02-28T21:26:48.479Z,6.40
2023-02-28T21:29:15.521Z,6.40
2023-02-28T21:31:42.327Z,6.40
2023-02-28T21:34:09.859Z,6.40
2023-02-28T21:36:39.672Z,6.40
2023-02-28T21:39:08.340Z,6.40
2023-02-28T21:41:35.555Z,6.40
2023-02-28T21:44:02.308Z,6.40
2023-02-28T21:46:30.061Z,6.40
2023-02-28T21:48:57.749Z,6.40
2023-02-28T21:51:26.708Z,6.40
2023-02-28T21:53:54.123Z,6.40
2023-02-28T21:56:22.256Z,6.40
2023-02-28T21:58:49.238Z,6.30
2023-02-28T22:01:17.351Z,6.40
2023-02-28T22:03:45.002Z,6.40
2023-02-28T22:06:12.706Z,6.40
2023-02-28T22:08:43.036Z,6.30
2023-02-28T22:11:09.902Z,6.30
2023-02-28T22:13:37.038Z,6.30
2023-02-28T22:16:08.356Z,6.30
2023-02-28T22:18:35.450Z,6.30
2023-02-28T22:21:02.298Z,6.30
2023-02-28T22:23:29.314Z,6.30
2023-02-28T22:25:56.137Z,6.30
2023-02-28T22:28:23.914Z,6.30
2023-02-28T22:30:51.016Z,6.30
2023-02-28T22:33:19.256Z,6.20
2023-02-28T22:35:46.154Z,6.20
2023-02-28T22:38:13.046Z,6.20
2023-02-28T22:40:39.917Z,6.10
2023-02-28T22:43:07.060Z,6.10
2023-02-28T22:45:40.838Z,6.00
2023-02-28T22:48:08.425Z,6.10
2023-02-28T22:50:35.624Z,5.90
2023-02-28T22:53:02.511Z,5.90
2023-02-28T22:55:29.347Z,5.80
2023-02-28T22:57:56.191Z,5.80
2023-02-28T23:00:24.043Z,5.70
2023-02-28T23:02:51.038Z,5.70
2023-02-28T23:05:18.284Z,5.70
2023-02-28T23:07:45.349Z,5.50
2023-02-28T23:10:14.006Z,5.50
2023-02-28T23:12:50.304Z,5.40
2023-02-28T23:15:18.101Z,5.40
2023-02-28T23:17:46.288Z,5.30
2023-02-28T23:20:13.673Z,5.30
2023-02-28T23:22:40.575Z,5.20
2023-02-28T23:25:07.599Z,5.30
2023-02-28T23:27:34.464Z,5.40
2023-02-28T23:30:02.844Z,5.30
2023-02-28T23:32:29.678Z,5.30
2023-02-28T23:34:56.658Z,5.30
2023-02-28T23:37:23.507Z,5.30
2023-02-28T23:39:50.360Z,5.30
2023-02-28T23:42:17.126Z,5.20
2023-02-28T23:44:43.944Z,5.20
2023-02-28T23:47:13.023Z,5.20
2023-02-28T23:49:40.178Z,5.20
2023-02-28T23:52:06.970Z,5.20
2023-02-28T23:54:34.345Z,5.20
2023-02-28T23:57:01.130Z,5.20
2023-02-28T23:59:27.980Z,5.20
